createdAt,value
2023-03-04T00:00:32.965Z,100674.97
2023-03-04T00:03:00.693Z,100671.56
2023-03-04T00:05:28.513Z,100668.16
2023-03-04T00:07:56.038Z,100675.63
2023-03-04T00:10:25.560Z,100675.53
2023-03-04T00:12:53.129Z,100683.19
2023-03-04T00:15:20.701Z,100687.00
2023-03-04T00:17:48.257Z,100683.44
2023-03-04T00:20:15.800Z,100683.22
2023-03-04T00:22:43.410Z,100685.88
2023-03-04T00:25:11.013Z,100678.16
2023-03-04T00:27:39.991Z,100684.53
2023-03-04T00:30:08.940Z,100684.53
2023-03-04T00:32:36.617Z,100675.91
2023-03-04T00:35:05.151Z,100678.44
2023-03-04T00:37:32.704Z,100690.22
2023-03-04T00:40:00.512Z,100681.38
2023-03-04T00:42:28.211Z,100680.50
2023-03-04T00:44:57.175Z,100682.81
2023-03-04T00:47:24.836Z,100683.31
2023-03-04T00:49:52.472Z,100688.38
2023-03-04T00:52:20.110Z,100684.19
2023-03-04T00:54:47.747Z,100682.28
2023-03-04T00:57:15.419Z,100682.97
2023-03-04T00:59:43.753Z,100692.19
2023-03-04T01:02:13.316Z,100686.38
2023-03-04T01:04:41.791Z,100689.41
2023-03-04T01:07:09.688Z,100683.88
2023-03-04T01:09:37.284Z,100683.63
2023-03-04T01:12:05.186Z,100680.75
2023-03-04T01:14:32.829Z,100682.91
2023-03-04T01:17:00.700Z,100679.25
2023-03-04T01:19:29.644Z,100688.38
2023-03-04T01:21:57.585Z,100684.19
2023-03-04T01:24:25.212Z,100682.44
2023-03-04T01:26:52.953Z,100689.00
2023-03-04T01:29:23.137Z,100685.22
2023-03-04T01:31:50.826Z,100685.00
2023-03-04T01:34:21.156Z,100684.72
2023-03-04T01:36:50.061Z,100676.00
2023-03-04T01:39:19.424Z,100675.88
2023-03-04T01:41:47.321Z,100680.94
2023-03-04T01:44:15.234Z,100676.28
2023-03-04T01:46:47.596Z,100677.16
2023-03-04T01:49:17.084Z,100670.09
2023-03-04T01:51:46.579Z,100684.00
2023-03-04T01:54:15.525Z,100672.00
2023-03-04T01:56:46.631Z,100667.56
2023-03-04T01:59:16.412Z,100670.63
2023-03-04T02:01:45.975Z,100668.84
2023-03-04T02:04:14.401Z,100669.22
2023-03-04T02:06:42.539Z,100667.09
2023-03-04T02:09:11.015Z,100660.16
2023-03-04T02:11:40.654Z,100656.00
2023-03-04T02:14:08.722Z,100657.25
2023-03-04T02:16:36.389Z,100644.63
2023-03-04T02:19:08.288Z,100657.88
2023-03-04T02:21:36.016Z,100654.97
2023-03-04T02:24:15.142Z,100652.97
2023-03-04T02:26:46.845Z,100656.38
2023-03-04T02:29:16.876Z,100647.03
2023-03-04T02:31:46.533Z,100648.53
2023-03-04T02:34:17.155Z,100650.94
2023-03-04T02:36:46.482Z,100650.69
2023-03-04T02:39:26.230Z,100653.22
2023-03-04T02:41:57.202Z,100651.44
2023-03-04T02:44:27.785Z,100655.50
2023-03-04T02:46:56.782Z,100650.19
2023-03-04T02:49:28.909Z,100654.09
2023-03-04T02:52:01.526Z,100653.22
2023-03-04T02:54:29.421Z,100651.94
2023-03-04T02:57:02.071Z,100645.91
2023-03-04T02:59:29.982Z,100654.25
2023-03-04T03:01:58.056Z,100655.00
2023-03-04T03:04:26.989Z,100655.63
2023-03-04T03:06:55.715Z,100648.69
2023-03-04T03:09:23.336Z,100646.88
2023-03-04T03:11:51.147Z,100645.13
2023-03-04T03:14:20.346Z,100648.41
2023-03-04T03:16:48.219Z,100652.19
2023-03-04T03:19:15.923Z,100656.75
2023-03-04T03:21:43.785Z,100651.69
2023-03-04T03:24:12.173Z,100648.16
2023-03-04T03:26:40.880Z,100650.94
2023-03-04T03:29:09.022Z,100638.31
2023-03-04T03:31:38.076Z,100642.34
2023-03-04T03:34:05.633Z,100643.22
2023-03-04T03:36:33.337Z,100655.59
2023-03-04T03:39:00.919Z,100647.13
2023-03-04T03:41:28.505Z,100649.53
2023-03-04T03:43:56.930Z,100642.72
2023-03-04T03:46:24.548Z,100650.91
2023-03-04T03:48:53.495Z,100651.03
2023-03-04T03:51:21.184Z,100645.88
2023-03-04T03:53:48.783Z,100641.31
2023-03-04T03:56:16.452Z,100641.06
2023-03-04T03:58:44.201Z,100636.03
2023-03-04T04:01:11.818Z,100641.69
2023-03-04T04:03:39.422Z,100635.50
2023-03-04T04:06:08.734Z,100637.28
2023-03-04T04:08:36.334Z,100636.75
2023-03-04T04:11:03.954Z,100645.06
2023-03-04T04:13:31.783Z,100639.13
2023-03-04T04:15:59.478Z,100650.09
2023-03-04T04:18:27.123Z,100650.75
2023-03-04T04:20:54.850Z,100657.44
2023-03-04T04:23:24.393Z,100656.66
2023-03-04T04:25:52.150Z,100656.41
2023-03-04T04:28:19.757Z,100653.75
2023-03-04T04:30:47.500Z,100659.44
2023-03-04T04:33:15.159Z,100658.41
2023-03-04T04:35:42.982Z,100659.16
2023-03-04T04:38:11.222Z,100663.22
2023-03-04T04:40:40.082Z,100663.94
2023-03-04T04:43:07.800Z,100657.75
2023-03-04T04:45:35.912Z,100658.38
2023-03-04T04:48:03.514Z,100659.88
2023-03-04T04:50:32.952Z,100668.97
2023-03-04T04:53:00.772Z,100659.63
2023-03-04T04:55:28.418Z,100659.63
2023-03-04T04:57:57.386Z,100656.22
2023-03-04T05:00:25.025Z,100663.66
2023-03-04T05:02:52.624Z,100663.38
2023-03-04T05:05:20.271Z,100665.66
2023-03-04T05:07:47.795Z,100666.25
2023-03-04T05:10:15.402Z,100660.09
2023-03-04T05:12:45.495Z,100664.84
2023-03-04T05:15:14.489Z,100666.38
2023-03-04T05:17:42.184Z,100666.09
2023-03-04T05:20:11.025Z,100663.44
2023-03-04T05:22:38.614Z,100668.31
2023-03-04T05:25:07.078Z,100668.19
2023-03-04T05:27:34.882Z,100670.59
2023-03-04T05:30:02.462Z,100661.88
2023-03-04T05:32:31.453Z,100673.13
2023-03-04T05:34:59.005Z,100664.16
2023-03-04T05:37:26.694Z,100673.31
2023-03-04T05:39:54.256Z,100666.38
2023-03-04T05:42:21.935Z,100674.81
2023-03-04T05:44:49.560Z,100676.34
2023-03-04T05:47:17.222Z,100673.66
2023-03-04T05:49:46.164Z,100677.81
2023-03-04T05:52:13.745Z,100689.41
2023-03-04T05:54:41.373Z,100683.63
2023-03-04T05:57:08.975Z,100688.78
2023-03-04T05:59:36.656Z,100684.09
2023-03-04T06:02:04.952Z,100687.66
2023-03-04T06:04:32.604Z,100689.75
2023-03-04T06:07:01.574Z,100691.25
2023-03-04T06:09:29.102Z,100698.69
2023-03-04T06:11:56.663Z,100695.69
2023-03-04T06:14:24.353Z,100700.59
2023-03-04T06:16:51.974Z,100697.91
2023-03-04T06:19:19.805Z,100702.25
2023-03-04T06:21:48.096Z,100703.13
2023-03-04T06:24:17.131Z,100705.75
2023-03-04T06:26:44.707Z,100706.66
2023-03-04T06:29:12.879Z,100712.56
2023-03-04T06:31:41.789Z,100709.56
2023-03-04T06:34:09.794Z,100712.22
2023-03-04T06:36:37.452Z,100712.44
2023-03-04T06:39:05.642Z,100722.75
2023-03-04T06:41:35.193Z,100723.72
2023-03-04T06:44:02.885Z,100717.28
2023-03-04T06:46:30.666Z,100719.06
2023-03-04T06:48:58.338Z,100724.38
2023-03-04T06:51:26.028Z,100717.31
2023-03-04T06:53:53.615Z,100718.59
2023-03-04T06:56:21.264Z,100723.28
2023-03-04T06:58:50.173Z,100722.03
2023-03-04T07:01:19.767Z,100735.56
2023-03-04T07:03:48.712Z,100727.72
2023-03-04T07:06:18.329Z,100716.63
2023-03-04T07:08:46.684Z,100732.28
2023-03-04T07:11:14.957Z,100733.94
2023-03-04T07:13:42.554Z,100732.19
2023-03-04T07:16:14.078Z,100728.63
2023-03-04T07:18:41.817Z,100743.91
2023-03-04T07:21:09.646Z,100738.13
2023-03-04T07:23:38.708Z,100741.53
2023-03-04T07:26:07.116Z,100739.59
2023-03-04T07:28:35.110Z,100743.38
2023-03-04T07:31:11.843Z,100746.63
2023-03-04T07:33:39.374Z,100752.94
2023-03-04T07:36:07.266Z,100751.91
2023-03-04T07:38:34.804Z,100756.06
2023-03-04T07:41:02.935Z,100757.97
2023-03-04T07:43:30.519Z,100756.50
2023-03-04T07:46:01.575Z,100763.81
2023-03-04T07:48:30.625Z,100763.50
2023-03-04T07:51:06.921Z,100767.53
2023-03-04T07:53:34.936Z,100764.56
2023-03-04T07:56:02.929Z,100777.47
2023-03-04T07:58:30.827Z,100769.22
2023-03-04T08:00:58.500Z,100777.47
2023-03-04T08:03:26.244Z,100786.38
2023-03-04T08:05:55.182Z,100781.84
2023-03-04T08:08:22.698Z,100776.78
2023-03-04T08:10:50.237Z,100781.66
2023-03-04T08:13:17.745Z,100786.44
2023-03-04T08:15:45.316Z,100783.84
2023-03-04T08:18:12.922Z,100785.47
2023-03-04T08:20:43.041Z,100784.84
2023-03-04T08:23:12.072Z,100782.88
2023-03-04T08:25:40.453Z,100785.56
2023-03-04T08:28:08.837Z,100775.00
2023-03-04T08:30:37.501Z,100779.66
2023-03-04T08:33:05.171Z,100777.47
2023-03-04T08:35:34.984Z,100782.31
2023-03-04T08:38:02.682Z,100775.31
2023-03-04T08:40:31.562Z,100773.22
2023-03-04T08:42:59.116Z,100780.38
2023-03-04T08:45:26.729Z,100775.53
2023-03-04T08:47:54.360Z,100773.84
2023-03-04T08:50:22.665Z,100783.56
2023-03-04T08:52:50.381Z,100770.13
2023-03-04T08:55:18.134Z,100769.13
2023-03-04T08:57:47.124Z,100772.56
2023-03-04T09:00:15.564Z,100776.22
2023-03-04T09:02:43.133Z,100773.00
2023-03-04T09:05:10.858Z,100774.19
2023-03-04T09:07:38.359Z,100778.66
2023-03-04T09:10:07.235Z,100776.47
2023-03-04T09:12:34.762Z,100778.25
2023-03-04T09:15:11.485Z,100775.81
2023-03-04T09:17:40.060Z,100764.16
2023-03-04T09:20:10.218Z,100762.44
2023-03-04T09:22:37.870Z,100764.16
2023-03-04T09:25:10.365Z,100768.88
2023-03-04T09:27:39.781Z,100774.03
2023-03-04T09:30:10.430Z,100773.97
2023-03-04T09:32:38.087Z,100764.94
2023-03-04T09:35:07.044Z,100773.75
2023-03-04T09:37:34.864Z,100771.03
2023-03-04T09:40:02.726Z,100771.56
2023-03-04T09:42:37.744Z,100764.03
2023-03-04T09:45:08.348Z,100775.75
2023-03-04T09:47:39.098Z,100774.38
2023-03-04T09:50:10.163Z,100769.34
2023-03-04T09:52:49.837Z,100773.81
2023-03-04T09:55:25.229Z,100778.59
2023-03-04T09:57:57.845Z,100773.00
2023-03-04T10:00:31.748Z,100774.00
2023-03-04T10:03:13.167Z,100776.06
2023-03-04T10:05:45.241Z,100774.66
2023-03-04T10:08:34.185Z,100774.16
2023-03-04T10:11:04.759Z,100772.22
2023-03-04T10:13:38.792Z,100776.97
2023-03-04T10:16:10.251Z,100782.78
2023-03-04T10:18:42.413Z,100776.34
2023-03-04T10:21:21.074Z,100775.38
2023-03-04T10:23:50.624Z,100768.13
2023-03-04T10:26:21.508Z,100770.97
2023-03-04T10:28:49.790Z,100771.69
2023-03-04T10:31:22.856Z,100770.09
2023-03-04T10:33:51.794Z,100767.44
2023-03-04T10:36:37.532Z,100770.75
2023-03-04T10:39:10.712Z,100768.84
2023-03-04T10:41:42.841Z,100762.69
2023-03-04T10:44:17.296Z,100769.13
2023-03-04T10:46:46.459Z,100764.69
2023-03-04T10:49:17.276Z,100764.94
2023-03-04T10:51:46.487Z,100761.78
2023-03-04T10:54:25.092Z,100757.03
2023-03-04T10:57:01.268Z,100756.69
2023-03-04T10:59:35.452Z,100754.94
2023-03-04T11:02:15.856Z,100751.31
2023-03-04T11:04:51.340Z,100747.72
2023-03-04T11:07:19.000Z,100742.88
2023-03-04T11:09:46.674Z,100743.97
2023-03-04T11:12:16.857Z,100737.19
2023-03-04T11:14:49.048Z,100740.53
2023-03-04T11:17:24.985Z,100743.34
2023-03-04T11:19:58.935Z,100736.50
2023-03-04T11:22:29.402Z,100743.34
2023-03-04T11:25:02.103Z,100736.69
2023-03-04T11:27:39.197Z,100736.69
2023-03-04T11:30:22.869Z,100732.00
2023-03-04T11:32:52.300Z,100731.97
2023-03-04T11:35:27.819Z,100728.31
2023-03-04T11:38:02.786Z,100736.19
2023-03-04T11:40:37.254Z,100722.53
2023-03-04T11:43:12.276Z,100732.41
2023-03-04T11:46:05.576Z,100727.72
2023-03-04T11:48:45.502Z,100720.78
2023-03-04T11:51:24.523Z,100721.84
2023-03-04T11:54:04.418Z,100721.41
2023-03-04T11:56:36.030Z,100719.19
2023-03-04T11:59:27.038Z,100715.84
2023-03-04T12:02:12.978Z,100706.53
2023-03-04T12:05:06.106Z,100702.31
2023-03-04T12:07:52.472Z,100711.22
2023-03-04T12:10:29.194Z,100706.88
2023-03-04T12:13:22.846Z,100696.22
2023-03-04T12:15:59.997Z,100699.56
2023-03-04T12:18:40.778Z,100691.81
2023-03-04T12:21:23.672Z,100691.81
2023-03-04T12:24:27.392Z,100683.13
2023-03-04T12:27:01.484Z,100680.94
2023-03-04T12:29:40.217Z,100674.50
2023-03-04T12:32:18.699Z,100675.63
2023-03-04T12:34:58.489Z,100664.81
2023-03-04T12:37:45.615Z,100673.75
2023-03-04T12:40:43.160Z,100670.09
2023-03-04T12:43:31.514Z,100665.69
2023-03-04T12:46:09.279Z,100654.75
2023-03-04T12:48:40.211Z,100654.41
2023-03-04T12:51:22.797Z,100652.66
2023-03-04T12:54:01.824Z,100663.41
2023-03-04T12:56:37.916Z,100659.63
2023-03-04T12:59:06.940Z,100640.16
2023-03-04T13:01:41.230Z,100645.00
2023-03-04T13:04:15.686Z,100641.03
2023-03-04T13:06:48.801Z,100640.06
2023-03-04T13:09:25.416Z,100638.66
2023-03-04T13:12:03.730Z,100636.25
2023-03-04T13:14:36.004Z,100633.09
2023-03-04T13:17:25.062Z,100637.28
2023-03-04T13:19:57.089Z,100634.84
2023-03-04T13:22:36.285Z,100628.16
2023-03-04T13:25:31.870Z,100631.78
2023-03-04T13:28:16.167Z,100632.91
2023-03-04T13:31:07.688Z,100634.31
2023-03-04T13:34:04.396Z,100631.63
2023-03-04T13:37:00.176Z,100625.53
2023-03-04T13:39:33.134Z,100632.03
2023-03-04T13:42:01.309Z,100634.84
2023-03-04T13:45:05.826Z,100634.31
2023-03-04T13:47:49.315Z,100621.47
2023-03-04T13:50:25.114Z,100620.22
2023-03-04T13:52:53.038Z,100618.09
2023-03-04T13:55:37.020Z,100614.19
2023-03-04T13:58:18.178Z,100614.47
2023-03-04T14:00:50.910Z,100614.00
2023-03-04T14:03:25.684Z,100608.72
2023-03-04T14:06:16.918Z,100604.66
2023-03-04T14:08:45.205Z,100609.47
2023-03-04T14:11:15.137Z,100599.94
2023-03-04T14:13:43.421Z,100599.78
2023-03-04T14:16:11.153Z,100598.88
2023-03-04T14:18:41.234Z,100598.25
2023-03-04T14:21:08.744Z,100596.25
2023-03-04T14:23:37.204Z,100591.50
2023-03-04T14:26:07.692Z,100597.00
2023-03-04T14:28:43.919Z,100585.75
2023-03-04T14:31:17.470Z,100593.31
2023-03-04T14:33:49.122Z,100588.38
2023-03-04T14:36:21.013Z,100584.53
2023-03-04T14:38:54.705Z,100583.72
2023-03-04T14:41:26.971Z,100581.78
2023-03-04T14:44:01.275Z,100572.06
2023-03-04T14:46:35.167Z,100570.13
2023-03-04T14:49:04.604Z,100579.03
2023-03-04T14:51:38.593Z,100582.47
2023-03-04T14:54:06.684Z,100576.09
2023-03-04T14:56:36.462Z,100576.03
2023-03-04T14:59:04.356Z,100573.75
2023-03-04T15:01:34.652Z,100575.63
2023-03-04T15:04:05.732Z,100579.13
2023-03-04T15:06:35.175Z,100572.25
2023-03-04T15:09:05.857Z,100567.31
2023-03-04T15:11:47.949Z,100569.44
2023-03-04T15:14:41.839Z,100572.94
2023-03-04T15:17:22.135Z,100567.69
2023-03-04T15:20:00.665Z,100568.13
2023-03-04T15:22:28.275Z,100570.66
2023-03-04T15:24:56.453Z,100567.25
2023-03-04T15:27:26.338Z,100562.06
2023-03-04T15:29:56.051Z,100560.47
2023-03-04T15:32:24.245Z,100568.31
2023-03-04T15:34:51.829Z,100564.75
2023-03-04T15:37:24.076Z,100553.59
2023-03-04T15:39:52.524Z,100551.84
2023-03-04T15:42:20.690Z,100551.66
2023-03-04T15:44:48.378Z,100553.59
2023-03-04T15:47:15.954Z,100549.47
2023-03-04T15:49:47.242Z,100552.88
2023-03-04T15:52:18.848Z,100546.56
2023-03-04T15:54:48.996Z,100549.31
2023-03-04T15:57:22.286Z,100550.88
2023-03-04T15:59:49.918Z,100551.53
2023-03-04T16:02:21.578Z,100551.53
2023-03-04T16:04:49.150Z,100548.78
2023-03-04T16:07:19.554Z,100553.09
2023-03-04T16:09:53.299Z,100550.81
2023-03-04T16:12:20.934Z,100552.41
2023-03-04T16:14:49.191Z,100550.66
2023-03-04T16:17:16.921Z,100552.41
2023-03-04T16:19:44.569Z,100547.44
2023-03-04T16:22:14.444Z,100552.75
2023-03-04T16:24:42.177Z,100541.75
2023-03-04T16:27:14.147Z,100548.44
2023-03-04T16:29:42.247Z,100545.09
2023-03-04T16:32:10.116Z,100542.53
2023-03-04T16:34:37.893Z,100544.22
2023-03-04T16:37:12.514Z,100542.72
2023-03-04T16:39:44.008Z,100542.88
2023-03-04T16:42:18.842Z,100536.03
2023-03-04T16:44:46.712Z,100539.03
2023-03-04T16:47:14.333Z,100541.31
2023-03-04T16:49:41.917Z,100538.50
2023-03-04T16:52:21.212Z,100540.97
2023-03-04T16:54:49.764Z,100542.66
2023-03-04T16:57:18.796Z,100547.81
2023-03-04T16:59:46.926Z,100547.97
2023-03-04T17:02:16.193Z,100540.97
2023-03-04T17:04:44.663Z,100548.34
2023-03-04T17:07:13.007Z,100551.88
2023-03-04T17:09:41.098Z,100551.06
2023-03-04T17:12:11.850Z,100555.41
2023-03-04T17:14:41.195Z,100558.56
2023-03-04T17:17:08.984Z,100558.38
2023-03-04T17:19:36.688Z,100548.97
2023-03-04T17:22:04.447Z,100563.31
2023-03-04T17:24:32.392Z,100557.31
2023-03-04T17:27:00.025Z,100546.06
2023-03-04T17:29:27.686Z,100549.56
2023-03-04T17:31:56.568Z,100553.63
2023-03-04T17:34:24.216Z,100554.50
2023-03-04T17:36:51.765Z,100550.28
2023-03-04T17:39:19.455Z,100559.63
2023-03-04T17:41:47.271Z,100559.50
2023-03-04T17:44:15.653Z,100560.38
2023-03-04T17:46:43.405Z,100561.19
2023-03-04T17:49:13.033Z,100562.75
2023-03-04T17:51:41.637Z,100559.22
2023-03-04T17:54:11.091Z,100556.78
2023-03-04T17:56:40.564Z,100564.97
2023-03-04T17:59:09.907Z,100559.06
2023-03-04T18:01:37.543Z,100558.88
2023-03-04T18:04:05.544Z,100551.16
2023-03-04T18:06:34.448Z,100548.53
2023-03-04T18:09:02.062Z,100556.16
2023-03-04T18:11:30.968Z,100557.84
2023-03-04T18:13:58.722Z,100551.16
2023-03-04T18:16:27.099Z,100545.34
2023-03-04T18:18:57.635Z,100551.16
2023-03-04T18:21:26.130Z,100540.88
2023-03-04T18:23:55.399Z,100541.63
2023-03-04T18:26:23.571Z,100543.22
2023-03-04T18:28:51.467Z,100533.03
2023-03-04T18:31:19.739Z,100539.81
2023-03-04T18:33:47.891Z,100539.88
2023-03-04T18:36:16.117Z,100533.22
2023-03-04T18:38:43.830Z,100529.00
2023-03-04T18:41:14.682Z,100533.22
2023-03-04T18:43:42.715Z,100530.41
2023-03-04T18:46:12.749Z,100525.31
2023-03-04T18:48:44.368Z,100527.78
2023-03-04T18:51:12.214Z,100527.78
2023-03-04T18:53:40.242Z,100531.09
2023-03-04T18:56:12.581Z,100524.25
2023-03-04T18:58:44.753Z,100520.03
2023-03-04T19:01:14.958Z,100526.00
2023-03-04T19:03:43.277Z,100516.59
2023-03-04T19:06:11.325Z,100519.06
2023-03-04T19:08:39.347Z,100509.75
2023-03-04T19:11:06.992Z,100517.59
2023-03-04T19:13:35.052Z,100516.69
2023-03-04T19:16:04.042Z,100517.59
2023-03-04T19:18:31.600Z,100510.53
2023-03-04T19:21:00.510Z,100515.81
2023-03-04T19:23:29.209Z,100514.03
2023-03-04T19:25:56.906Z,100510.53
2023-03-04T19:28:24.912Z,100506.13
2023-03-04T19:30:53.805Z,100517.19
2023-03-04T19:33:22.749Z,100507.88
2023-03-04T19:35:50.442Z,100511.16
2023-03-04T19:38:18.048Z,100513.69
2023-03-04T19:40:46.731Z,100513.50
2023-03-04T19:43:14.750Z,100514.28
2023-03-04T19:45:42.663Z,100524.50
2023-03-04T19:48:10.301Z,100510.94
2023-03-04T19:50:39.234Z,100512.63
2023-03-04T19:53:06.803Z,100509.19
2023-03-04T19:55:37.879Z,100506.66
2023-03-04T19:58:05.440Z,100499.72
2023-03-04T20:00:33.067Z,100501.41
2023-03-04T20:03:01.681Z,100495.94
2023-03-04T20:05:29.352Z,100504.84
2023-03-04T20:07:58.215Z,100495.06
2023-03-04T20:10:25.840Z,100496.81
2023-03-04T20:12:55.325Z,100495.75
2023-03-04T20:15:22.981Z,100505.06
2023-03-04T20:17:50.546Z,100497.44
2023-03-04T20:20:18.495Z,100501.50
2023-03-04T20:22:46.248Z,100506.66
2023-03-04T20:25:15.107Z,100508.34
2023-03-04T20:27:43.901Z,100504.03
2023-03-04T20:30:12.765Z,100502.28
2023-03-04T20:32:40.376Z,100501.50
2023-03-04T20:35:13.859Z,100506.47
2023-03-04T20:37:42.373Z,100500.50
2023-03-04T20:40:12.132Z,100501.16
2023-03-04T20:42:41.263Z,100503.69
2023-03-04T20:45:09.608Z,100503.84
2023-03-04T20:47:39.532Z,100501.03
2023-03-04T20:50:07.762Z,100500.34
2023-03-04T20:52:35.395Z,100501.91
2023-03-04T20:55:03.020Z,100496.47
2023-03-04T20:57:31.198Z,100498.84
2023-03-04T21:00:00.145Z,100492.97
2023-03-04T21:02:27.712Z,100489.25
2023-03-04T21:04:55.565Z,100494.16
2023-03-04T21:07:24.284Z,100491.44
2023-03-04T21:09:51.849Z,100487.31
2023-03-04T21:12:19.492Z,100490.81
2023-03-04T21:14:47.500Z,100491.53
2023-03-04T21:17:16.667Z,100480.47
2023-03-04T21:19:44.309Z,100487.31
2023-03-04T21:22:15.968Z,100468.53
2023-03-04T21:24:45.339Z,100464.63
2023-03-04T21:27:13.484Z,100466.31
2023-03-04T21:29:41.212Z,100475.78
2023-03-04T21:32:23.712Z,100469.94
2023-03-04T21:34:54.788Z,100464.03
2023-03-04T21:37:23.905Z,100450.16
2023-03-04T21:39:51.819Z,100456.56
2023-03-04T21:42:19.957Z,100456.56
2023-03-04T21:44:50.345Z,100445.59
2023-03-04T21:47:19.110Z,100432.66
2023-03-04T21:49:46.736Z,100433.28
2023-03-04T21:52:15.708Z,100435.13
2023-03-04T21:54:43.284Z,100443.47
2023-03-04T21:57:11.308Z,100453.66
2023-03-04T21:59:39.259Z,100455.50
2023-03-04T22:02:07.588Z,100456.38
2023-03-04T22:04:35.505Z,100457.06
2023-03-04T22:07:03.106Z,100454.44
2023-03-04T22:09:33.056Z,100447.75
2023-03-04T22:12:00.618Z,100451.97
2023-03-04T22:14:29.425Z,100451.28
2023-03-04T22:16:57.229Z,100451.09
2023-03-04T22:19:26.462Z,100444.44
2023-03-04T22:21:55.233Z,100442.84
2023-03-04T22:24:23.600Z,100441.97
2023-03-04T22:26:52.642Z,100441.97
2023-03-04T22:29:20.173Z,100439.50
2023-03-04T22:31:47.987Z,100434.41
2023-03-04T22:34:16.697Z,100436.16
2023-03-04T22:36:46.444Z,100425.97
2023-03-04T22:39:19.044Z,100437.75
2023-03-04T22:41:46.881Z,100426.78
2023-03-04T22:44:15.782Z,100421.59
2023-03-04T22:46:43.809Z,100420.66
2023-03-04T22:49:13.721Z,100408.78
2023-03-04T22:51:42.870Z,100420.53
2023-03-04T22:54:12.536Z,100418.97
2023-03-04T22:56:40.191Z,100417.13
2023-03-04T22:59:07.728Z,100418.00
2023-03-04T23:01:36.728Z,100420.72
2023-03-04T23:04:04.338Z,100422.56
2023-03-04T23:06:31.980Z,100423.28
2023-03-04T23:09:00.185Z,100420.72
2023-03-04T23:11:30.083Z,100425.81
2023-03-04T23:13:59.029Z,100424.06
2023-03-04T23:16:28.409Z,100428.38
2023-03-04T23:18:59.419Z,100423.19
2023-03-04T23:21:28.568Z,100427.38
2023-03-04T23:23:56.282Z,100423.28
2023-03-04T23:26:26.758Z,100420.88
2023-03-04T23:28:56.819Z,100422.47
2023-03-04T23:31:25.518Z,100415.63
2023-03-04T23:33:57.249Z,100422.66
2023-03-04T23:36:29.646Z,100417.38
2023-03-04T23:38:57.751Z,100419.06
2023-03-04T23:41:28.077Z,100412.47
2023-03-04T23:43:56.942Z,100413.34
2023-03-04T23:46:25.490Z,100410.69
2023-03-04T23:48:53.999Z,100407.19
2023-03-04T23:51:23.083Z,100411.22
2023-03-04T23:53:52.417Z,100406.66
2023-03-04T23:56:22.506Z,100399.88
2023-03-04T23:58:50.396Z,100398.22
